createdAt,value
2022-08-17T00:00:07.797Z,97342.00
2022-08-17T00:00:34.894Z,97346.00
2022-08-17T00:00:42.674Z,97346.00
2022-08-17T00:00:49.467Z,97346.00
2022-08-17T00:00:51.694Z,97344.00
2022-08-17T00:00:58.336Z,97350.00
2022-08-17T00:01:08.481Z,97346.00
2022-08-17T00:01:18.412Z,97344.00
2022-08-17T00:01:28.501Z,97348.00
2022-08-17T00:01:51.379Z,97348.00
2022-08-17T00:01:52.075Z,97348.00
2022-08-17T00:01:58.752Z,97350.00
2022-08-17T00:02:18.101Z,97350.00
2022-08-17T00:02:26.467Z,97350.00
2022-08-17T00:02:29.050Z,97350.00
2022-08-17T00:02:42.834Z,97348.00
2022-08-17T00:02:49.309Z,97348.00
2022-08-17T00:02:59.125Z,97346.00
2022-08-17T00:03:09.500Z,97344.00
2022-08-17T00:03:19.565Z,97342.00
2022-08-17T00:03:29.662Z,97344.00
2022-08-17T00:03:39.713Z,97336.00
2022-08-17T00:03:50.091Z,97338.00
2022-08-17T00:04:00.206Z,97338.00
2022-08-17T00:04:11.939Z,97336.00
2022-08-17T00:04:20.383Z,97336.00
2022-08-17T00:04:30.739Z,97338.00
2022-08-17T00:04:40.857Z,97332.00
2022-08-17T00:04:50.981Z,97336.00
2022-08-17T00:05:01.107Z,97336.00
2022-08-17T00:05:11.135Z,97336.00
2022-08-17T00:05:21.260Z,97336.00
2022-08-17T00:05:31.520Z,97334.00
2022-08-17T00:05:41.597Z,97334.00
2022-08-17T00:05:51.707Z,97334.00
2022-08-17T00:06:01.956Z,97334.00
2022-08-17T00:06:12.075Z,97336.00
2022-08-17T00:06:22.187Z,97336.00
2022-08-17T00:06:32.318Z,97336.00
2022-08-17T00:06:42.443Z,97336.00
2022-08-17T00:06:52.488Z,97334.00
2022-08-17T00:07:02.603Z,97338.00
2022-08-17T00:07:12.728Z,97334.00
2022-08-17T00:07:22.864Z,97336.00
2022-08-17T00:07:32.849Z,97340.00
2022-08-17T00:07:42.847Z,97342.00
2022-08-17T00:07:53.098Z,97340.00
2022-08-17T00:08:03.093Z,97338.00
2022-08-17T00:08:13.218Z,97340.00
2022-08-17T00:08:23.461Z,97338.00
2022-08-17T00:08:33.580Z,97338.00
2022-08-17T00:08:43.693Z,97342.00
2022-08-17T00:08:53.819Z,97338.00
2022-08-17T00:09:03.810Z,97338.00
2022-08-17T00:09:18.677Z,97340.00
2022-08-17T00:09:24.050Z,97340.00
2022-08-17T00:09:34.176Z,97344.00
2022-08-17T00:09:44.178Z,97340.00
2022-08-17T00:09:54.296Z,97340.00
2022-08-17T00:10:04.294Z,97342.00
2022-08-17T00:10:14.419Z,97340.00
2022-08-17T00:10:24.429Z,97340.00
2022-08-17T00:10:34.542Z,97338.00
2022-08-17T00:10:44.678Z,97342.00
2022-08-17T00:10:54.691Z,97344.00
2022-08-17T00:11:04.676Z,97342.00
2022-08-17T00:11:14.925Z,97344.00
2022-08-17T00:11:24.922Z,97344.00
2022-08-17T00:11:35.037Z,97344.00
2022-08-17T00:12:34.615Z,97346.00
2022-08-17T00:12:40.523Z,97340.00
2022-08-17T00:12:41.176Z,97346.00
2022-08-17T00:12:42.216Z,97346.00
2022-08-17T00:12:42.870Z,97346.00
2022-08-17T00:12:43.683Z,97344.00
2022-08-17T00:12:45.817Z,97348.00
2022-08-17T00:12:56.190Z,97348.00
2022-08-17T00:13:05.969Z,97348.00
2022-08-17T00:13:16.092Z,97348.00
2022-08-17T00:13:26.205Z,97350.00
2022-08-17T00:13:36.339Z,97348.00
2022-08-17T00:13:46.334Z,97350.00
2022-08-17T00:13:56.450Z,97348.00
2022-08-17T00:14:06.697Z,97346.00
2022-08-17T00:14:16.815Z,97346.00
2022-08-17T00:14:26.929Z,97346.00
2022-08-17T00:14:37.199Z,97346.00
2022-08-17T00:14:47.059Z,97348.00
2022-08-17T00:14:57.175Z,97348.00
2022-08-17T00:15:08.341Z,97348.00
2022-08-17T00:15:17.440Z,97350.00
2022-08-17T00:15:27.445Z,97348.00
2022-08-17T00:15:37.561Z,97350.00
2022-08-17T00:15:47.680Z,97350.00
2022-08-17T00:15:57.794Z,97348.00
2022-08-17T00:16:07.911Z,97348.00
2022-08-17T00:16:18.030Z,97346.00
2022-08-17T00:16:51.916Z,97350.00
2022-08-17T00:16:55.576Z,97348.00
2022-08-17T00:16:55.585Z,97348.00
2022-08-17T00:16:58.517Z,97350.00
2022-08-17T00:17:08.518Z,97348.00
2022-08-17T00:17:18.637Z,97348.00
2022-08-17T00:17:28.639Z,97350.00
2022-08-17T00:17:38.762Z,97350.00
2022-08-17T00:17:48.755Z,97348.00
2022-08-17T00:17:58.871Z,97348.00
2022-08-17T00:18:58.152Z,97350.00
2022-08-17T00:18:58.207Z,97348.00
2022-08-17T00:19:01.048Z,97350.00
2022-08-17T00:19:01.221Z,97348.00
2022-08-17T00:19:02.438Z,97350.00
2022-08-17T00:19:07.834Z,97348.00
2022-08-17T00:19:09.375Z,97346.00
2022-08-17T00:19:19.370Z,97346.00
2022-08-17T00:19:29.491Z,97348.00
2022-08-17T00:19:39.614Z,97354.00
2022-08-17T00:19:49.733Z,97352.00
2022-08-17T00:19:59.853Z,97354.00
2022-08-17T00:20:09.852Z,97352.00
2022-08-17T00:20:20.021Z,97352.00
2022-08-17T00:20:33.543Z,97354.00
2022-08-17T00:20:40.129Z,97352.00
2022-08-17T00:20:50.359Z,97350.00
2022-08-17T00:21:00.351Z,97348.00
2022-08-17T00:21:10.843Z,97352.00
2022-08-17T00:21:23.857Z,97352.00
2022-08-17T00:21:57.944Z,97354.00
2022-08-17T00:21:59.939Z,97354.00
2022-08-17T00:22:30.728Z,97356.00
2022-08-17T00:22:31.324Z,97354.00
2022-08-17T00:22:31.422Z,97358.00
2022-08-17T00:22:33.854Z,97360.00
2022-08-17T00:22:36.130Z,97356.00
2022-08-17T00:22:41.320Z,97356.00
2022-08-17T00:22:51.598Z,97358.00
2022-08-17T00:23:01.551Z,97356.00
2022-08-17T00:23:11.662Z,97356.00
2022-08-17T00:23:21.780Z,97356.00
2022-08-17T00:23:31.900Z,97356.00
2022-08-17T00:23:44.242Z,97356.00
2022-08-17T00:23:52.145Z,97356.00
2022-08-17T00:24:02.257Z,97356.00
2022-08-17T00:24:12.391Z,97356.00
2022-08-17T00:24:22.380Z,97356.00
2022-08-17T00:24:32.376Z,97360.00
2022-08-17T00:24:42.496Z,97356.00
2022-08-17T00:24:52.609Z,97358.00
2022-08-17T00:25:02.735Z,97360.00
2022-08-17T00:25:12.728Z,97358.00
2022-08-17T00:25:22.842Z,97358.00
2022-08-17T00:25:32.956Z,97358.00
2022-08-17T00:25:43.078Z,97356.00
2022-08-17T00:25:53.199Z,97358.00
2022-08-17T00:26:03.315Z,97358.00
2022-08-17T00:26:13.433Z,97358.00
2022-08-17T00:26:43.511Z,97360.00
2022-08-17T00:26:44.363Z,97358.00
2022-08-17T00:26:45.205Z,97362.00
2022-08-17T00:26:53.823Z,97362.00
2022-08-17T00:27:04.196Z,97360.00
2022-08-17T00:27:14.312Z,97360.00
2022-08-17T00:27:24.429Z,97356.00
2022-08-17T00:27:34.553Z,97360.00
2022-08-17T00:27:44.545Z,97358.00
2022-08-17T00:27:54.660Z,97362.00
2022-08-17T00:28:04.750Z,97362.00
2022-08-17T00:28:14.868Z,97362.00
2022-08-17T00:28:24.865Z,97362.00
2022-08-17T00:28:34.956Z,97360.00
2022-08-17T00:28:45.082Z,97362.00
2022-08-17T00:28:55.323Z,97362.00
2022-08-17T00:29:05.313Z,97364.00
2022-08-17T00:29:20.012Z,97362.00
2022-08-17T00:29:25.462Z,97366.00
2022-08-17T00:29:35.576Z,97366.00
2022-08-17T00:29:45.842Z,97364.00
2022-08-17T00:29:55.818Z,97362.00
2022-08-17T00:30:05.934Z,97366.00
2022-08-17T00:30:16.063Z,97362.00
2022-08-17T00:30:26.060Z,97364.00
2022-08-17T00:30:48.467Z,97366.00
2022-08-17T00:30:51.081Z,97370.00
2022-08-17T00:30:56.199Z,97372.00
2022-08-17T00:31:06.179Z,97372.00
2022-08-17T00:31:16.298Z,97373.00
2022-08-17T00:31:26.297Z,97370.00
2022-08-17T00:31:36.414Z,97373.00
2022-08-17T00:31:46.538Z,97373.00
2022-08-17T00:31:56.653Z,97373.00
2022-08-17T00:33:12.093Z,97379.00
2022-08-17T00:33:12.248Z,97381.00
2022-08-17T00:33:12.680Z,97375.00
2022-08-17T00:33:14.905Z,97377.00
2022-08-17T00:33:15.073Z,97375.00
2022-08-17T00:33:16.005Z,97379.00
2022-08-17T00:33:17.197Z,97381.00
2022-08-17T00:33:23.257Z,97377.00
2022-08-17T00:33:27.496Z,97383.00
2022-08-17T00:33:37.213Z,97379.00
2022-08-17T00:33:47.332Z,97379.00
2022-08-17T00:33:57.441Z,97381.00
2022-08-17T00:34:07.569Z,97379.00
2022-08-17T00:34:17.686Z,97381.00
2022-08-17T00:34:27.936Z,97381.00
2022-08-17T00:34:38.019Z,97381.00
2022-08-17T00:34:48.134Z,97383.00
2022-08-17T00:34:58.258Z,97381.00
2022-08-17T00:35:08.377Z,97381.00
2022-08-17T00:35:18.520Z,97379.00
2022-08-17T00:35:28.610Z,97387.00
2022-08-17T00:35:38.731Z,97383.00
2022-08-17T00:35:48.846Z,97385.00
2022-08-17T00:35:58.974Z,97387.00
2022-08-17T00:36:09.097Z,97387.00
2022-08-17T00:36:19.213Z,97387.00
2022-08-17T00:36:29.212Z,97391.00
2022-08-17T00:36:39.468Z,97389.00
2022-08-17T00:36:49.464Z,97391.00
2022-08-17T00:36:59.591Z,97389.00
2022-08-17T00:37:09.835Z,97393.00
2022-08-17T00:37:19.956Z,97391.00
2022-08-17T00:37:29.982Z,97389.00
2022-08-17T00:37:40.237Z,97393.00
2022-08-17T00:37:50.351Z,97395.00
2022-08-17T00:38:00.468Z,97395.00
2022-08-17T00:38:10.590Z,97393.00
2022-08-17T00:38:20.707Z,97397.00
2022-08-17T00:38:30.829Z,97393.00
2022-08-17T00:38:40.950Z,97395.00
2022-08-17T00:38:51.068Z,97393.00
2022-08-17T00:39:01.194Z,97395.00
2022-08-17T00:39:11.313Z,97391.00
2022-08-17T00:39:21.427Z,97393.00
2022-08-17T00:39:31.614Z,97393.00
2022-08-17T00:39:41.754Z,97397.00
2022-08-17T00:39:51.743Z,97395.00
2022-08-17T00:40:01.815Z,97397.00
2022-08-17T00:40:11.929Z,97393.00
2022-08-17T00:40:21.907Z,97393.00
2022-08-17T00:40:39.998Z,97391.00
2022-08-17T00:40:44.578Z,97393.00
2022-08-17T00:40:52.028Z,97393.00
2022-08-17T00:41:02.062Z,97389.00
2022-08-17T00:41:12.064Z,97393.00
2022-08-17T00:41:22.186Z,97393.00
2022-08-17T00:41:32.301Z,97393.00
2022-08-17T00:41:42.853Z,97391.00
2022-08-17T00:41:52.516Z,97391.00
2022-08-17T00:42:02.635Z,97391.00
2022-08-17T00:42:12.628Z,97391.00
2022-08-17T00:42:24.496Z,97387.00
2022-08-17T00:42:32.942Z,97393.00
2022-08-17T00:42:43.117Z,97391.00
2022-08-17T00:42:53.117Z,97391.00
2022-08-17T00:43:03.363Z,97387.00
2022-08-17T00:43:13.473Z,97385.00
2022-08-17T00:43:23.588Z,97387.00
2022-08-17T00:43:33.706Z,97389.00
2022-08-17T00:43:43.822Z,97387.00
2022-08-17T00:43:53.937Z,97389.00
2022-08-17T00:44:04.057Z,97385.00
2022-08-17T00:44:14.175Z,97385.00
2022-08-17T00:44:24.292Z,97383.00
2022-08-17T00:44:34.287Z,97383.00
2022-08-17T00:44:44.404Z,97385.00
2022-08-17T00:44:54.533Z,97383.00
2022-08-17T00:45:04.640Z,97383.00
2022-08-17T00:45:14.755Z,97385.00
2022-08-17T00:45:24.879Z,97385.00
2022-08-17T00:45:34.993Z,97383.00
2022-08-17T00:45:45.108Z,97383.00
2022-08-17T00:45:55.237Z,97383.00
2022-08-17T00:46:05.350Z,97383.00
2022-08-17T00:46:15.349Z,97387.00
2022-08-17T00:46:25.467Z,97383.00
2022-08-17T00:46:35.591Z,97383.00
2022-08-17T00:46:45.621Z,97383.00
2022-08-17T00:46:55.615Z,97383.00
2022-08-17T00:47:05.614Z,97385.00
2022-08-17T00:47:15.728Z,97385.00
2022-08-17T00:47:25.851Z,97385.00
2022-08-17T00:47:35.856Z,97385.00
2022-08-17T00:47:45.850Z,97385.00
2022-08-17T00:47:56.238Z,97387.00
2022-08-17T00:48:06.360Z,97387.00
2022-08-17T00:48:29.441Z,97385.00
2022-08-17T00:48:30.229Z,97385.00
2022-08-17T00:48:36.487Z,97385.00
2022-08-17T00:48:46.636Z,97385.00
2022-08-17T00:48:56.629Z,97387.00
2022-08-17T00:49:06.756Z,97387.00
2022-08-17T00:49:16.877Z,97387.00
2022-08-17T00:49:26.992Z,97383.00
2022-08-17T00:49:37.119Z,97385.00
2022-08-17T00:49:47.166Z,97385.00
2022-08-17T00:49:57.153Z,97387.00
2022-08-17T00:50:07.273Z,97385.00
2022-08-17T00:50:17.513Z,97389.00
2022-08-17T00:50:27.630Z,97385.00
2022-08-17T00:50:37.745Z,97387.00
2022-08-17T00:50:47.864Z,97383.00
2022-08-17T00:50:57.864Z,97385.00
2022-08-17T00:51:08.475Z,97383.00
2022-08-17T00:51:18.223Z,97387.00
2022-08-17T00:51:28.338Z,97387.00
2022-08-17T00:51:38.451Z,97385.00
2022-08-17T00:51:48.571Z,97383.00
2022-08-17T00:51:58.686Z,97385.00
2022-08-17T00:52:11.607Z,97385.00
2022-08-17T00:52:18.910Z,97383.00
2022-08-17T00:52:29.069Z,97383.00
2022-08-17T00:52:39.067Z,97387.00
2022-08-17T00:52:49.405Z,97383.00
2022-08-17T00:52:59.281Z,97381.00
2022-08-17T00:53:09.399Z,97379.00
2022-08-17T00:53:19.523Z,97379.00
2022-08-17T00:53:29.519Z,97381.00
2022-08-17T00:53:39.644Z,97381.00
2022-08-17T00:53:49.891Z,97379.00
2022-08-17T00:54:00.015Z,97379.00
2022-08-17T00:54:10.129Z,97381.00
2022-08-17T00:54:20.284Z,97379.00
2022-08-17T00:54:30.277Z,97375.00
2022-08-17T00:54:41.958Z,97377.00
2022-08-17T00:54:50.397Z,97377.00
2022-08-17T00:55:00.511Z,97377.00
2022-08-17T00:55:10.518Z,97375.00
2022-08-17T00:55:20.509Z,97375.00
2022-08-17T00:55:30.627Z,97375.00
2022-08-17T00:55:40.755Z,97377.00
2022-08-17T00:55:50.751Z,97375.00
2022-08-17T00:56:00.864Z,97373.00
2022-08-17T00:56:10.987Z,97372.00
2022-08-17T00:56:21.102Z,97370.00
2022-08-17T00:56:31.218Z,97375.00
2022-08-17T00:56:41.336Z,97373.00
2022-08-17T00:56:51.453Z,97375.00
2022-08-17T00:57:01.574Z,97370.00
2022-08-17T00:57:11.696Z,97372.00
2022-08-17T00:57:21.696Z,97372.00
2022-08-17T00:57:31.814Z,97372.00
2022-08-17T00:57:42.057Z,97372.00
2022-08-17T00:57:55.205Z,97370.00
2022-08-17T00:58:02.184Z,97370.00
2022-08-17T00:58:12.309Z,97373.00
2022-08-17T00:58:35.827Z,97373.00
2022-08-17T00:58:36.198Z,97375.00
2022-08-17T00:58:42.620Z,97373.00
2022-08-17T00:58:52.734Z,97373.00
2022-08-17T00:59:02.849Z,97373.00
2022-08-17T00:59:12.967Z,97375.00
2022-08-17T00:59:23.086Z,97372.00
2022-08-17T00:59:33.204Z,97373.00
2022-08-17T00:59:43.204Z,97375.00
2022-08-17T01:00:02.430Z,97375.00
2022-08-17T01:00:03.759Z,97373.00
2022-08-17T01:00:13.360Z,97373.00
2022-08-17T01:00:23.482Z,97377.00
2022-08-17T01:00:33.612Z,97377.00
2022-08-17T01:00:43.651Z,97373.00
2022-08-17T01:00:53.763Z,97375.00
2022-08-17T01:01:03.904Z,97375.00
2022-08-17T01:01:21.370Z,97375.00
2022-08-17T01:01:24.110Z,97373.00
2022-08-17T01:01:34.177Z,97375.00
2022-08-17T01:01:44.171Z,97373.00
2022-08-17T01:01:54.286Z,97373.00
2022-08-17T01:02:04.401Z,97375.00
2022-08-17T01:02:14.523Z,97375.00
2022-08-17T01:02:24.639Z,97373.00
2022-08-17T01:02:41.183Z,97375.00
2022-08-17T01:02:44.800Z,97377.00
2022-08-17T01:02:55.137Z,97373.00
2022-08-17T01:03:04.869Z,97372.00
2022-08-17T01:03:15.014Z,97373.00
2022-08-17T01:03:24.998Z,97373.00
2022-08-17T01:03:35.259Z,97375.00
2022-08-17T01:03:45.261Z,97375.00
2022-08-17T01:03:59.205Z,97373.00
2022-08-17T01:04:05.330Z,97373.00
2022-08-17T01:04:15.704Z,97379.00
2022-08-17T01:04:25.834Z,97377.00
2022-08-17T01:04:35.820Z,97373.00
2022-08-17T01:04:46.081Z,97373.00
2022-08-17T01:04:56.069Z,97375.00
2022-08-17T01:05:06.189Z,97379.00
2022-08-17T01:05:16.477Z,97379.00
2022-08-17T01:05:26.454Z,97379.00
2022-08-17T01:05:36.551Z,97377.00
2022-08-17T01:05:46.923Z,97379.00
2022-08-17T01:05:57.049Z,97381.00
2022-08-17T01:06:07.120Z,97381.00
2022-08-17T01:06:17.422Z,97379.00
2022-08-17T01:06:27.464Z,97381.00
2022-08-17T01:06:37.589Z,97383.00
2022-08-17T01:06:47.908Z,97383.00
2022-08-17T01:06:58.030Z,97383.00
2022-08-17T01:07:08.194Z,97381.00
2022-08-17T01:07:18.319Z,97381.00
2022-08-17T01:07:28.452Z,97383.00
2022-08-17T01:07:38.560Z,97381.00
2022-08-17T01:07:48.680Z,97383.00
2022-08-17T01:07:58.802Z,97383.00
2022-08-17T01:08:08.912Z,97383.00
2022-08-17T01:08:19.035Z,97383.00
2022-08-17T01:08:29.149Z,97387.00
2022-08-17T01:08:39.149Z,97387.00
2022-08-17T01:08:49.393Z,97385.00
2022-08-17T01:08:59.519Z,97383.00
2022-08-17T01:09:09.634Z,97385.00
2022-08-17T01:09:19.759Z,97385.00
2022-08-17T01:09:29.877Z,97385.00
2022-08-17T01:09:39.989Z,97385.00
2022-08-17T01:09:50.207Z,97387.00
2022-08-17T01:10:00.208Z,97385.00
2022-08-17T01:10:57.142Z,97387.00
2022-08-17T01:10:57.579Z,97383.00
2022-08-17T01:10:58.228Z,97385.00
2022-08-17T01:10:59.223Z,97383.00
2022-08-17T01:11:00.003Z,97385.00
2022-08-17T01:11:01.944Z,97383.00
2022-08-17T01:11:10.859Z,97383.00
2022-08-17T01:11:20.861Z,97383.00
2022-08-17T01:11:30.859Z,97387.00
2022-08-17T01:11:40.978Z,97385.00
2022-08-17T01:11:51.223Z,97383.00
2022-08-17T01:12:01.356Z,97383.00
2022-08-17T01:12:11.343Z,97383.00
2022-08-17T01:12:21.588Z,97385.00
2022-08-17T01:12:31.700Z,97383.00
2022-08-17T01:12:41.816Z,97383.00
2022-08-17T01:12:51.945Z,97383.00
2022-08-17T01:13:01.942Z,97383.00
2022-08-17T01:13:12.059Z,97383.00
2022-08-17T01:13:22.304Z,97383.00
2022-08-17T01:13:36.717Z,97383.00
2022-08-17T01:13:42.549Z,97385.00
2022-08-17T01:13:52.659Z,97381.00
2022-08-17T01:14:02.781Z,97385.00
2022-08-17T01:14:12.900Z,97385.00
2022-08-17T01:14:22.893Z,97385.00
2022-08-17T01:14:33.015Z,97387.00
2022-08-17T01:14:43.133Z,97385.00
2022-08-17T01:14:53.256Z,97387.00
2022-08-17T01:15:03.245Z,97385.00
2022-08-17T01:15:13.374Z,97385.00
2022-08-17T01:15:23.382Z,97385.00
2022-08-17T01:15:33.389Z,97387.00
2022-08-17T01:15:46.209Z,97385.00
2022-08-17T01:15:53.466Z,97387.00
2022-08-17T01:16:03.476Z,97389.00
2022-08-17T01:16:13.484Z,97391.00
2022-08-17T01:16:23.604Z,97391.00
2022-08-17T01:16:33.719Z,97389.00
2022-08-17T01:16:43.722Z,97391.00
2022-08-17T01:16:53.835Z,97391.00
2022-08-17T01:17:03.954Z,97393.00
2022-08-17T01:17:14.069Z,97393.00
2022-08-17T01:17:24.073Z,97395.00
2022-08-17T01:17:34.077Z,97395.00
2022-08-17T01:17:44.190Z,97395.00
2022-08-17T01:17:54.444Z,97397.00
2022-08-17T01:18:04.441Z,97395.00
2022-08-17T01:18:14.559Z,97395.00
2022-08-17T01:18:24.823Z,97395.00
2022-08-17T01:18:34.940Z,97393.00
2022-08-17T01:18:45.053Z,97393.00
2022-08-17T01:18:55.177Z,97393.00
2022-08-17T01:19:05.291Z,97391.00
2022-08-17T01:19:15.409Z,97391.00
2022-08-17T01:19:25.553Z,97391.00
2022-08-17T01:19:35.539Z,97389.00
2022-08-17T01:19:45.538Z,97389.00
2022-08-17T01:19:55.915Z,97389.00
2022-08-17T01:20:06.028Z,97387.00
2022-08-17T01:20:16.145Z,97387.00
2022-08-17T01:20:26.276Z,97385.00
2022-08-17T01:20:42.633Z,97385.00
2022-08-17T01:20:48.432Z,97383.00
2022-08-17T01:20:56.495Z,97383.00
2022-08-17T01:21:06.492Z,97385.00
2022-08-17T01:21:16.624Z,97381.00
2022-08-17T01:21:26.619Z,97383.00
2022-08-17T01:21:36.737Z,97383.00
2022-08-17T01:21:47.113Z,97383.00
2022-08-17T01:21:57.127Z,97383.00
2022-08-17T01:22:07.109Z,97383.00
2022-08-17T01:22:17.352Z,97383.00
2022-08-17T01:22:27.467Z,97385.00
2022-08-17T01:22:37.581Z,97385.00
2022-08-17T01:22:47.704Z,97383.00
2022-08-17T01:22:57.821Z,97381.00
2022-08-17T01:23:07.935Z,97383.00
2022-08-17T01:23:20.556Z,97385.00
2022-08-17T01:23:28.177Z,97383.00
2022-08-17T01:23:38.167Z,97383.00
2022-08-17T01:23:48.284Z,97383.00
2022-08-17T01:23:58.403Z,97385.00
2022-08-17T01:24:08.517Z,97389.00
2022-08-17T01:24:18.634Z,97385.00
2022-08-17T01:24:28.753Z,97389.00
2022-08-17T01:24:38.871Z,97387.00
2022-08-17T01:24:48.879Z,97387.00
2022-08-17T01:24:58.874Z,97387.00
2022-08-17T01:25:08.986Z,97387.00
2022-08-17T01:25:19.103Z,97389.00
2022-08-17T01:25:29.225Z,97387.00
2022-08-17T01:25:39.345Z,97387.00
2022-08-17T01:25:49.467Z,97387.00
2022-08-17T01:25:59.471Z,97385.00
2022-08-17T01:26:09.481Z,97389.00
2022-08-17T01:26:19.592Z,97385.00
2022-08-17T01:26:29.838Z,97387.00
2022-08-17T01:26:39.955Z,97389.00
2022-08-17T01:26:50.070Z,97389.00
2022-08-17T01:27:00.192Z,97391.00
2022-08-17T01:27:10.807Z,97389.00
2022-08-17T01:27:20.667Z,97393.00
2022-08-17T01:27:30.715Z,97391.00
2022-08-17T01:27:40.838Z,97389.00
2022-08-17T01:27:50.841Z,97389.00
2022-08-17T01:28:01.088Z,97389.00
2022-08-17T01:28:11.202Z,97389.00
2022-08-17T01:28:52.404Z,97391.00
2022-08-17T01:28:53.008Z,97391.00
2022-08-17T01:28:53.664Z,97393.00
2022-08-17T01:28:53.865Z,97393.00
2022-08-17T01:29:01.640Z,97393.00
2022-08-17T01:29:11.638Z,97395.00
2022-08-17T01:29:21.764Z,97391.00
2022-08-17T01:29:31.763Z,97395.00
2022-08-17T01:29:41.887Z,97393.00
2022-08-17T01:29:51.887Z,97393.00
2022-08-17T01:30:02.002Z,97391.00
2022-08-17T01:30:56.882Z,97395.00
2022-08-17T01:30:57.284Z,97395.00
2022-08-17T01:30:57.454Z,97395.00
2022-08-17T01:30:58.018Z,97395.00
2022-08-17T01:30:58.274Z,97397.00
2022-08-17T01:31:02.623Z,97395.00
2022-08-17T01:31:12.742Z,97397.00
2022-08-17T01:31:22.742Z,97397.00
2022-08-17T01:31:32.739Z,97397.00
2022-08-17T01:31:42.858Z,97395.00
2022-08-17T01:31:52.861Z,97397.00
2022-08-17T01:32:02.989Z,97399.00
2022-08-17T01:32:13.104Z,97395.00
2022-08-17T01:32:23.225Z,97395.00
2022-08-17T01:32:33.338Z,97397.00
2022-08-17T01:32:43.454Z,97395.00
2022-08-17T01:32:53.572Z,97395.00
2022-08-17T01:33:03.688Z,97393.00
2022-08-17T01:33:13.805Z,97393.00
2022-08-17T01:33:23.928Z,97389.00
2022-08-17T01:33:34.036Z,97389.00
2022-08-17T01:33:44.160Z,97389.00
2022-08-17T01:33:54.149Z,97391.00
2022-08-17T01:34:04.281Z,97389.00
2022-08-17T01:34:14.384Z,97391.00
2022-08-17T01:34:24.617Z,97389.00
2022-08-17T01:34:42.874Z,97391.00
2022-08-17T01:34:50.247Z,97389.00
2022-08-17T01:34:54.646Z,97391.00
2022-08-17T01:35:04.764Z,97389.00
2022-08-17T01:35:14.886Z,97389.00
2022-08-17T01:35:25.007Z,97389.00
2022-08-17T01:35:35.116Z,97389.00
2022-08-17T01:35:45.237Z,97389.00
2022-08-17T01:35:55.289Z,97387.00
2022-08-17T01:36:05.293Z,97387.00
2022-08-17T01:36:15.412Z,97389.00
2022-08-17T01:36:25.530Z,97389.00
2022-08-17T01:36:35.531Z,97389.00
2022-08-17T01:36:45.650Z,97389.00
2022-08-17T01:36:55.772Z,97387.00
2022-08-17T01:37:05.889Z,97387.00
2022-08-17T01:37:16.005Z,97387.00
2022-08-17T01:37:26.121Z,97387.00
2022-08-17T01:37:36.237Z,97387.00
2022-08-17T01:37:46.356Z,97389.00
2022-08-17T01:37:56.472Z,97389.00
2022-08-17T01:38:06.602Z,97391.00
2022-08-17T01:38:16.598Z,97389.00
2022-08-17T01:38:27.278Z,97391.00
2022-08-17T01:38:36.701Z,97391.00
2022-08-17T01:38:46.825Z,97393.00
2022-08-17T01:38:56.954Z,97391.00
2022-08-17T01:39:06.945Z,97393.00
2022-08-17T01:39:17.068Z,97393.00
2022-08-17T01:39:27.252Z,97391.00
2022-08-17T01:39:37.276Z,97393.00
2022-08-17T01:39:47.390Z,97395.00
2022-08-17T01:39:57.446Z,97395.00
2022-08-17T01:40:07.558Z,97393.00
2022-08-17T01:40:17.538Z,97395.00
2022-08-17T01:40:27.666Z,97395.00
2022-08-17T01:40:37.665Z,97395.00
2022-08-17T01:40:47.910Z,97395.00
2022-08-17T01:40:58.036Z,97395.00
2022-08-17T01:41:08.148Z,97397.00
2022-08-17T01:41:18.272Z,97397.00
2022-08-17T01:41:28.389Z,97397.00
2022-08-17T01:41:38.506Z,97397.00
2022-08-17T01:41:48.627Z,97397.00
2022-08-17T01:41:58.742Z,97397.00
2022-08-17T01:42:08.856Z,97395.00
2022-08-17T01:42:18.968Z,97395.00
2022-08-17T01:42:29.088Z,97397.00
2022-08-17T01:42:39.219Z,97395.00
2022-08-17T01:42:49.465Z,97399.00
2022-08-17T01:42:59.400Z,97399.00
2022-08-17T01:43:09.528Z,97397.00
2022-08-17T01:43:19.638Z,97399.00
2022-08-17T01:43:29.761Z,97401.00
2022-08-17T01:43:39.880Z,97401.00
2022-08-17T01:43:49.995Z,97403.00
2022-08-17T01:44:00.129Z,97403.00
2022-08-17T01:44:10.122Z,97403.00
2022-08-17T01:44:20.235Z,97403.00
2022-08-17T01:44:30.574Z,97405.00
2022-08-17T01:44:40.647Z,97405.00
2022-08-17T01:44:50.633Z,97407.00
2022-08-17T01:45:00.631Z,97407.00
2022-08-17T01:45:10.774Z,97405.00
2022-08-17T01:45:21.490Z,97407.00
2022-08-17T01:45:30.869Z,97409.00
2022-08-17T01:45:40.873Z,97407.00
2022-08-17T01:46:03.263Z,97407.00
2022-08-17T01:46:03.471Z,97409.00
2022-08-17T01:46:11.110Z,97411.00
2022-08-17T01:46:21.224Z,97411.00
2022-08-17T01:46:31.358Z,97411.00
2022-08-17T01:46:41.356Z,97409.00
2022-08-17T01:46:51.473Z,97409.00
2022-08-17T01:47:01.593Z,97411.00
2022-08-17T01:47:11.604Z,97411.00
2022-08-17T01:47:21.729Z,97413.00
2022-08-17T01:47:31.839Z,97411.00
2022-08-17T01:47:41.935Z,97413.00
2022-08-17T01:47:52.053Z,97411.00
2022-08-17T01:48:02.110Z,97413.00
2022-08-17T01:48:12.223Z,97411.00
2022-08-17T01:48:22.341Z,97415.00
2022-08-17T01:48:32.459Z,97415.00
2022-08-17T01:48:42.581Z,97415.00
2022-08-17T01:48:52.578Z,97415.00
2022-08-17T01:49:02.694Z,97413.00
2022-08-17T01:49:12.815Z,97415.00
2022-08-17T01:49:22.812Z,97415.00
2022-08-17T01:49:32.943Z,97415.00
2022-08-17T01:49:42.953Z,97415.00
2022-08-17T01:49:53.201Z,97415.00
2022-08-17T01:50:03.322Z,97415.00
2022-08-17T01:50:13.433Z,97415.00
2022-08-17T01:50:23.559Z,97417.00
2022-08-17T01:50:33.681Z,97415.00
2022-08-17T01:50:43.675Z,97417.00
2022-08-17T01:50:53.923Z,97417.00
2022-08-17T01:51:04.047Z,97419.00
2022-08-17T01:51:14.153Z,97417.00
2022-08-17T01:51:24.281Z,97415.00
2022-08-17T01:51:34.406Z,97417.00
2022-08-17T01:51:44.399Z,97419.00
2022-08-17T01:51:54.665Z,97417.00
2022-08-17T01:52:04.659Z,97417.00
2022-08-17T01:52:14.662Z,97417.00
2022-08-17T01:52:25.034Z,97417.00
2022-08-17T01:52:35.159Z,97419.00
2022-08-17T01:52:45.160Z,97417.00
2022-08-17T01:52:55.410Z,97420.00
2022-08-17T01:53:05.526Z,97420.00
2022-08-17T01:53:15.636Z,97419.00
2022-08-17T01:53:25.763Z,97419.00
2022-08-17T01:53:35.881Z,97419.00
2022-08-17T01:53:45.880Z,97419.00
2022-08-17T01:53:56.129Z,97420.00
2022-08-17T01:54:06.248Z,97420.00
2022-08-17T01:54:16.245Z,97420.00
2022-08-17T01:54:26.493Z,97420.00
2022-08-17T01:54:36.492Z,97422.00
2022-08-17T01:54:46.608Z,97422.00
2022-08-17T01:54:56.855Z,97420.00
2022-08-17T01:55:06.977Z,97419.00
2022-08-17T01:55:16.977Z,97417.00
2022-08-17T01:55:27.545Z,97419.00
2022-08-17T01:55:37.310Z,97420.00
2022-08-17T01:55:47.430Z,97422.00
2022-08-17T01:55:57.683Z,97420.00
2022-08-17T01:56:07.810Z,97420.00
2022-08-17T01:56:17.924Z,97424.00
2022-08-17T01:56:28.044Z,97422.00
2022-08-17T01:56:38.170Z,97424.00
2022-08-17T01:56:48.168Z,97422.00
2022-08-17T01:56:58.414Z,97424.00
2022-08-17T01:57:08.540Z,97426.00
2022-08-17T01:57:18.529Z,97426.00
2022-08-17T01:57:28.788Z,97426.00
2022-08-17T01:57:38.903Z,97426.00
2022-08-17T01:57:49.019Z,97428.00
2022-08-17T01:57:59.149Z,97432.00
2022-08-17T01:58:09.177Z,97432.00
2022-08-17T01:58:19.297Z,97432.00
2022-08-17T01:58:29.413Z,97432.00
2022-08-17T01:58:39.541Z,97432.00